Time;durP1;ratioP1;P1;durP2;ratioP2;P2;SDS_P1;SDS_P2;PMS_P1;PMS_P2;Temp;Humidity;BMP_temperature;BMP_pressure;BME280_temperature;BME280_humidity;BME280_pressure;Samples;Min_cycle;Max_cycle;Signal;HPM_P1;HPM_P2
2024/01/29 00:02:20;;;;;;;9.57;3.55;;;;;;;1.40;100.00;100078.50;5096450;28;20032;-58
2024/01/29 00:04:47;;;;;;;8.55;3.85;;;;;;;1.27;100.00;100074.06;5097780;28;20022;-59
2024/01/29 00:07:13;;;;;;;6.82;3.35;;;;;;;1.17;100.00;100073.03;5089700;28;20028;-58
2024/01/29 00:09:39;;;;;;;7.25;3.53;;;;;;;1.01;100.00;100059.13;5097566;28;20024;-58
2024/01/29 00:12:05;;;;;;;6.53;3.60;;;;;;;0.99;100.00;100079.72;5091873;28;20464;-60
2024/01/29 00:14:30;;;;;;;7.15;4.07;;;;;;;1.02;100.00;100083.03;5095917;28;20032;-59
2024/01/29 00:16:56;;;;;;;7.30;3.53;;;;;;;0.93;100.00;100085.50;5087719;28;20433;-58
2024/01/29 00:19:21;;;;;;;6.57;3.38;;;;;;;0.71;100.00;100083.50;5090450;28;20038;-58
2024/01/29 00:21:46;;;;;;;6.72;3.40;;;;;;;0.65;100.00;100080.34;5088591;28;20035;-57
2024/01/29 00:24:12;;;;;;;6.10;3.22;;;;;;;0.60;100.00;100079.81;5090261;28;20031;-58
2024/01/29 00:26:39;;;;;;;6.50;3.70;;;;;;;0.70;100.00;100079.13;5091752;28;20095;-58
2024/01/29 00:29:04;;;;;;;8.70;3.78;;;;;;;0.63;100.00;100076.06;5094294;28;20016;-58
2024/01/29 00:31:30;;;;;;;6.53;3.72;;;;;;;0.63;100.00;100084.91;5091584;28;20368;-58
2024/01/29 00:33:55;;;;;;;6.18;3.67;;;;;;;0.57;100.00;100084.47;5093236;28;20027;-58
2024/01/29 00:36:21;;;;;;;6.07;3.42;;;;;;;0.51;100.00;100079.59;5091695;28;20139;-58
2024/01/29 00:38:46;;;;;;;6.20;3.17;;;;;;;0.38;100.00;100074.28;5093664;28;20099;-58
2024/01/29 00:41:11;;;;;;;7.68;3.10;;;;;;;0.41;100.00;100076.72;5093569;28;20050;-58
2024/01/29 00:43:37;;;;;;;5.55;3.50;;;;;;;0.32;100.00;100069.38;5092702;28;20087;-57
2024/01/29 00:46:02;;;;;;;7.03;3.25;;;;;;;0.33;100.00;100077.25;5091354;28;20190;-57
2024/01/29 00:48:28;;;;;;;8.95;3.83;;;;;;;0.27;100.00;100074.19;5093271;28;20036;-56
2024/01/29 00:50:55;;;;;;;7.13;3.60;;;;;;;0.15;100.00;100074.03;5091422;28;20032;-56
2024/01/29 00:53:21;;;;;;;10.52;4.63;;;;;;;0.13;100.00;100075.09;5088926;28;20055;-56
2024/01/29 00:55:46;;;;;;;8.20;4.03;;;;;;;0.06;100.00;100082.69;5091845;28;20052;-57
2024/01/29 00:58:13;;;;;;;9.63;4.30;;;;;;;-0.06;100.00;100088.81;5093049;28;20020;-56
2024/01/29 01:00:38;;;;;;;10.05;4.45;;;;;;;-0.08;100.00;100080.97;5088553;28;20106;-57
2024/01/29 01:03:05;;;;;;;8.30;4.32;;;;;;;-0.24;100.00;100073.16;5071076;28;20080;-56
2024/01/29 01:05:31;;;;;;;11.00;4.55;;;;;;;-0.23;100.00;100087.31;5089019;28;20024;-56
2024/01/29 01:07:56;;;;;;;8.20;4.10;;;;;;;-0.30;100.00;100091.34;5086598;28;20046;-56
2024/01/29 01:10:22;;;;;;;8.30;4.32;;;;;;;-0.33;100.00;100095.03;5091340;28;20479;-57
2024/01/29 01:12:47;;;;;;;10.57;4.30;;;;;;;-0.26;100.00;100101.66;5084291;28;20028;-56
2024/01/29 01:15:13;;;;;;;8.95;4.50;;;;;;;-0.34;100.00;100079.19;5091659;28;20077;-56
2024/01/29 01:17:40;;;;;;;8.30;4.82;;;;;;;-0.28;100.00;100098.25;5090904;28;20024;-63
2024/01/29 01:20:06;;;;;;;7.55;4.22;;;;;;;-0.30;100.00;100102.81;5091069;28;20108;-63
2024/01/29 01:22:32;;;;;;;8.90;4.93;;;;;;;-0.26;100.00;100101.66;5092855;28;20020;-63
2024/01/29 01:24:57;;;;;;;10.50;4.78;;;;;;;-0.42;100.00;100085.00;5091545;28;20077;-63
2024/01/29 01:27:23;;;;;;;9.70;4.85;;;;;;;-0.44;100.00;100102.88;5091473;28;20056;-63
2024/01/29 01:29:48;;;;;;;14.52;5.93;;;;;;;-0.55;100.00;100084.13;5090888;28;20059;-62
2024/01/29 01:32:14;;;;;;;13.43;6.57;;;;;;;-0.55;100.00;100094.75;5091578;28;20027;-63
2024/01/29 01:34:39;;;;;;;16.00;6.38;;;;;;;-0.57;100.00;100102.00;5092475;28;20038;-62
2024/01/29 01:37:04;;;;;;;12.75;5.82;;;;;;;-0.63;100.00;100105.88;5088676;28;20020;-63
2024/01/29 01:39:31;;;;;;;11.43;5.20;;;;;;;-0.55;100.00;100100.94;5090261;28;20035;-63
2024/01/29 01:41:56;;;;;;;10.77;5.15;;;;;;;-0.60;100.00;100103.03;5093121;28;20550;-63
2024/01/29 01:44:22;;;;;;;10.80;5.10;;;;;;;-0.62;100.00;100101.44;5091628;28;20087;-63
2024/01/29 01:49:32;;;;;;;9.25;4.28;;;;;;;-0.58;100.00;100094.94;5057171;22;20049;-53
2024/01/29 01:51:58;;;;;;;12.68;4.82;;;;;;;-0.55;100.00;100090.31;5061711;28;20082;-53
2024/01/29 01:54:23;;;;;;;10.55;4.57;;;;;;;-0.56;100.00;100093.91;5051743;28;20053;-53
2024/01/29 01:56:49;;;;;;;9.48;4.53;;;;;;;-0.62;100.00;100088.16;5053427;28;20037;-53
2024/01/29 01:59:14;;;;;;;9.38;4.82;;;;;;;-0.58;100.00;100098.47;5043952;28;20029;-53
2024/01/29 02:01:40;;;;;;;8.63;4.40;;;;;;;-0.59;100.00;100096.75;5050108;28;20032;-53
2024/01/29 02:04:06;;;;;;;14.00;5.03;;;;;;;-0.65;100.00;100091.88;5041598;28;20028;-53
2024/01/29 02:06:31;;;;;;;10.73;5.10;;;;;;;-0.72;100.00;100096.72;5021028;28;20029;-53
2024/01/29 02:08:58;;;;;;;11.05;4.32;;;;;;;-0.84;100.00;100091.34;5034159;28;20036;-52
2024/01/29 02:11:24;;;;;;;10.65;4.38;;;;;;;-0.80;100.00;100101.66;5034503;28;20041;-53
2024/01/29 02:13:49;;;;;;;7.13;3.85;;;;;;;-0.86;100.00;100096.75;5048320;28;20025;-53
2024/01/29 02:16:14;;;;;;;9.63;4.35;;;;;;;-0.88;100.00;100094.19;5032811;28;20432;-53
2024/01/29 02:18:40;;;;;;;10.23;4.10;;;;;;;-0.94;100.00;100088.44;5036427;28;20041;-53
2024/01/29 02:21:05;;;;;;;8.38;4.35;;;;;;;-0.89;100.00;100091.66;5045410;28;20025;-53
2024/01/29 02:23:32;;;;;;;10.73;3.90;;;;;;;-0.87;100.00;100087.06;5044360;28;20025;-53
2024/01/29 02:25:57;;;;;;;8.90;4.30;;;;;;;-0.79;100.00;100086.56;5051543;28;20468;-53
2024/01/29 02:28:24;;;;;;;8.68;4.07;;;;;;;-0.83;100.00;100085.94;5042170;28;20115;-53
2024/01/29 02:30:49;;;;;;;9.25;4.43;;;;;;;-0.81;100.00;100084.03;5042442;28;20129;-53
2024/01/29 02:33:15;;;;;;;8.60;4.35;;;;;;;-0.88;100.00;100091.53;5050437;28;20112;-53
2024/01/29 02:35:40;;;;;;;8.75;4.70;;;;;;;-0.96;100.00;100091.19;5059960;28;20424;-53
2024/01/29 02:38:05;;;;;;;10.13;4.55;;;;;;;-1.17;100.00;100077.47;5047085;28;20037;-53
2024/01/29 02:40:30;;;;;;;7.72;4.28;;;;;;;-1.18;100.00;100094.38;5043049;28;20040;-53
2024/01/29 02:42:56;;;;;;;9.18;4.38;;;;;;;-1.24;100.00;100081.44;5050719;28;20435;-53
2024/01/29 02:45:21;;;;;;;11.73;5.18;;;;;;;-1.22;100.00;100095.50;5051829;28;20037;-56
2024/01/29 02:47:47;;;;;;;9.35;4.32;;;;;;;-1.34;100.00;100088.28;5047569;28;20033;-57
2024/01/29 02:50:12;;;;;;;10.73;4.45;;;;;;;-1.26;100.00;100098.44;5048583;28;20376;-53
2024/01/29 02:52:37;;;;;;;9.57;4.25;;;;;;;-1.31;100.00;100085.47;5049423;28;20056;-52
2024/01/29 02:55:03;;;;;;;12.15;4.60;;;;;;;-1.30;100.00;100087.16;5055579;28;20393;-53
2024/01/29 02:57:29;;;;;;;10.77;5.18;;;;;;;-1.28;100.00;100085.25;5048082;28;20586;-53
2024/01/29 02:59:54;;;;;;;10.07;5.20;;;;;;;-1.07;100.00;100088.38;5053551;28;20029;-52
2024/01/29 03:02:20;;;;;;;10.27;4.90;;;;;;;-1.13;100.00;100076.34;5051248;28;20100;-53
2024/01/29 03:04:45;;;;;;;10.10;4.75;;;;;;;-1.02;100.00;100085.41;5027444;28;20041;-58
2024/01/29 03:07:11;;;;;;;10.60;5.00;;;;;;;-1.05;100.00;100090.91;5046474;28;20372;-53
2024/01/29 03:09:36;;;;;;;8.23;4.82;;;;;;;-1.11;100.00;100082.38;5044077;28;20033;-53
2024/01/29 03:12:02;;;;;;;10.98;5.13;;;;;;;-1.05;100.00;100086.44;5055673;28;20086;-53
2024/01/29 03:14:28;;;;;;;10.57;5.03;;;;;;;-1.16;100.00;100096.91;5049046;28;20029;-53
2024/01/29 03:16:53;;;;;;;10.60;5.38;;;;;;;-1.28;100.00;100093.22;5044361;28;20385;-53
2024/01/29 03:19:20;;;;;;;11.88;5.28;;;;;;;-1.36;100.00;100093.72;5046095;28;20412;-53
2024/01/29 03:21:45;;;;;;;9.70;4.90;;;;;;;-1.39;100.00;100093.03;5045870;28;20029;-53
2024/01/29 03:24:10;;;;;;;8.20;4.68;;;;;;;-1.40;100.00;100091.34;5030861;28;20050;-53
2024/01/29 03:26:36;;;;;;;8.93;4.30;;;;;;;-1.43;100.00;100092.38;5050324;28;20045;-52
2024/01/29 03:29:02;;;;;;;7.47;4.18;;;;;;;-1.39;100.00;100101.00;5048844;28;20029;-52
2024/01/29 03:31:28;;;;;;;6.50;3.85;;;;;;;-1.34;100.00;100101.56;5049386;28;20062;-53
2024/01/29 03:33:55;;;;;;;7.38;3.30;;;;;;;-1.39;100.00;100098.34;5045744;28;20026;-53
2024/01/29 03:36:21;;;;;;;6.68;4.32;;;;;;;-1.46;100.00;100099.69;5049429;28;20036;-53
2024/01/29 03:38:48;;;;;;;7.50;3.97;;;;;;;-1.43;100.00;100096.84;5047611;28;20060;-53
2024/01/29 03:41:13;;;;;;;7.22;4.10;;;;;;;-1.42;100.00;100093.22;5050754;28;20029;-53
2024/01/29 03:43:38;;;;;;;11.82;4.82;;;;;;;-1.41;100.00;100092.28;5039452;28;20057;-53
2024/01/29 03:46:04;;;;;;;10.18;5.10;;;;;;;-1.39;100.00;100093.03;5048259;28;20025;-57
2024/01/29 03:48:29;;;;;;;6.88;4.28;;;;;;;-1.38;100.00;100089.44;5044803;28;20065;-57
2024/01/29 03:50:55;;;;;;;8.52;4.65;;;;;;;-1.34;100.00;100082.97;5050868;28;20345;-57
2024/01/29 03:53:20;;;;;;;5.50;3.65;;;;;;;-1.26;100.00;100099.28;5047111;28;20383;-57
2024/01/29 03:55:47;;;;;;;5.38;3.40;;;;;;;-1.24;100.00;100092.06;5042347;28;20033;-57
2024/01/29 03:58:12;;;;;;;7.45;3.85;;;;;;;-1.20;100.00;100098.91;5046632;28;20368;-57
2024/01/29 04:00:38;;;;;;;7.88;3.72;;;;;;;-1.22;100.00;100097.31;5049530;28;20081;-57
2024/01/29 04:03:05;;;;;;;7.90;3.40;;;;;;;-1.24;100.00;100089.41;5053018;28;20100;-57
2024/01/29 04:05:30;;;;;;;7.95;4.25;;;;;;;-1.28;100.00;100092.34;5048131;28;20090;-57
2024/01/29 04:07:55;;;;;;;7.97;4.55;;;;;;;-1.31;100.00;100088.13;5043572;28;20033;-57
2024/01/29 04:10:21;;;;;;;8.02;4.32;;;;;;;-1.30;100.00;100097.78;5050414;28;20037;-58
2024/01/29 04:12:47;;;;;;;6.22;3.63;;;;;;;-1.28;100.00;100093.22;5046981;28;20057;-57
2024/01/29 04:15:12;;;;;;;7.35;3.85;;;;;;;-1.38;100.00;100092.94;5048280;28;20025;-57
2024/01/29 04:17:38;;;;;;;5.45;3.10;;;;;;;-1.35;100.00;100102.53;5043174;28;20373;-57
2024/01/29 04:20:05;;;;;;;7.72;3.53;;;;;;;-1.35;100.00;100095.41;5044652;28;20498;-57
2024/01/29 04:22:32;;;;;;;7.60;3.80;;;;;;;-1.35;100.00;100100.72;5041479;28;20037;-56
2024/01/29 04:24:58;;;;;;;7.93;3.55;;;;;;;-1.42;100.00;100075.50;5058143;28;20135;-57
2024/01/29 04:27:24;;;;;;;9.13;4.30;;;;;;;-1.41;100.00;100089.63;5051559;28;20029;-57
2024/01/29 04:29:49;;;;;;;9.02;4.10;;;;;;;-1.50;100.00;100090.19;5059829;28;20029;-57
2024/01/29 04:32:14;;;;;;;6.75;3.65;;;;;;;-1.50;100.00;100095.50;5042662;28;20034;-57
2024/01/29 04:34:40;;;;;;;9.27;3.42;;;;;;;-1.53;100.00;100101.00;5051615;28;20067;-57
2024/01/29 04:37:05;;;;;;;7.93;3.35;;;;;;;-1.52;100.00;100102.69;5047372;28;20037;-57
2024/01/29 04:39:31;;;;;;;8.50;3.65;;;;;;;-1.53;100.00;100101.00;5037655;28;20022;-57
2024/01/29 04:41:56;;;;;;;6.78;2.97;;;;;;;-1.55;100.00;100099.31;5042992;28;20460;-57
2024/01/29 04:44:22;;;;;;;5.80;3.42;;;;;;;-1.61;100.00;100086.41;5045699;28;20427;-58
2024/01/29 04:46:49;;;;;;;6.18;3.58;;;;;;;-1.50;100.00;100091.03;5039105;28;20037;-57
2024/01/29 04:49:14;;;;;;;7.82;3.60;;;;;;;-1.49;100.00;100097.19;5028708;28;20413;-57
2024/01/29 04:51:40;;;;;;;6.18;3.03;;;;;;;-1.53;100.00;100083.28;5267463;22;20052;-53
2024/01/29 04:54:05;;;;;;;6.55;3.70;;;;;;;-1.57;100.00;100084.44;5069962;28;20091;-53
2024/01/29 04:56:30;;;;;;;9.10;4.03;;;;;;;-1.53;100.00;100091.25;5088072;28;20072;-53
2024/01/29 04:58:56;;;;;;;11.02;4.72;;;;;;;-1.59;100.00;100092.47;5086661;28;20455;-53
2024/01/29 05:01:21;;;;;;;8.55;4.18;;;;;;;-1.72;100.00;100093.31;5089176;28;20771;-53
2024/01/29 05:03:47;;;;;;;9.43;4.40;;;;;;;-1.73;100.00;100095.09;5089608;28;20089;-53
2024/01/29 05:06:31;;;;;;;10.98;4.50;;;;;;;-2.34;100.00;100004.22;5153584;22;20068;-78
2024/01/29 05:08:56;;;;;;;11.00;4.70;;;;;;;-1.68;100.00;100100.97;5066710;28;20056;-76
2024/01/29 05:11:22;;;;;;;10.00;4.60;;;;;;;-1.78;100.00;100084.78;5072781;28;20327;-75
2024/01/29 05:16:19;;;;;;;8.60;4.53;;;;;;;-1.74;100.00;100098.72;5044211;28;20056;-53
2024/01/29 05:18:44;;;;;;;8.90;4.45;;;;;;;-1.64;100.00;100114.94;5038596;28;20030;-53
2024/01/29 05:21:11;;;;;;;9.30;5.15;;;;;;;-1.72;100.00;100112.75;5024600;28;20021;-53
2024/01/29 05:23:36;;;;;;;7.90;3.92;;;;;;;-1.74;100.00;100109.31;5026622;28;20473;-53
2024/01/29 05:26:03;;;;;;;12.65;4.75;;;;;;;-1.71;100.00;100125.06;5038224;28;20029;-53
2024/01/29 05:28:28;;;;;;;9.50;4.15;;;;;;;-1.72;100.00;100130.47;5035152;28;20681;-53
2024/01/29 05:30:53;;;;;;;9.80;5.28;;;;;;;-1.79;100.00;100116.72;5036653;28;20024;-53
2024/01/29 05:33:19;;;;;;;10.32;5.25;;;;;;;-1.60;100.00;100119.09;5032688;28;20037;-52
2024/01/29 05:35:44;;;;;;;9.15;4.57;;;;;;;-1.48;100.00;100120.16;5040534;28;20539;-55
2024/01/29 05:38:09;;;;;;;9.80;5.38;;;;;;;-1.55;100.00;100106.41;5030602;28;20025;-56
2024/01/29 05:40:35;;;;;;;11.43;5.63;;;;;;;-1.45;100.00;100127.94;5037467;28;20547;-56
2024/01/29 05:43:00;;;;;;;13.68;5.50;;;;;;;-1.41;100.00;100124.16;5030802;28;20040;-56
2024/01/29 05:45:26;;;;;;;9.70;5.53;;;;;;;-1.36;100.00;100120.25;5023201;28;21437;-56
2024/01/29 05:47:51;;;;;;;9.45;5.18;;;;;;;-1.39;100.00;100119.56;5007745;28;20397;-56
2024/01/29 05:50:16;;;;;;;10.18;5.40;;;;;;;-1.38;100.00;100129.25;5009815;28;20032;-56
2024/01/29 05:52:42;;;;;;;13.13;5.45;;;;;;;-1.21;100.00;100141.47;5004489;28;20030;-57
2024/01/29 05:55:08;;;;;;;11.82;4.72;;;;;;;-1.22;100.00;100137.13;5013998;28;20369;-56
2024/01/29 05:57:33;;;;;;;13.45;5.68;;;;;;;-1.26;100.00;100128.47;5025389;28;20040;-56
2024/01/29 05:59:59;;;;;;;10.32;5.50;;;;;;;-1.26;100.00;100131.13;5027066;28;20041;-56
2024/01/29 06:02:24;;;;;;;10.85;6.05;;;;;;;-1.28;100.00;100130.41;5018807;28;20051;-56
2024/01/29 06:04:50;;;;;;;13.80;6.40;;;;;;;-1.32;100.00;100132.38;5011610;28;20107;-56
2024/01/29 06:07:15;;;;;;;15.10;7.47;;;;;;;-1.36;100.00;100141.50;5027722;28;20043;-56
2024/01/29 06:09:41;;;;;;;10.30;6.68;;;;;;;-1.35;100.00;100137.03;5026788;28;20038;-56
2024/01/29 06:12:07;;;;;;;15.32;7.35;;;;;;;-1.37;100.00;100138.91;5033876;28;20025;-56
2024/01/29 06:14:33;;;;;;;13.05;6.03;;;;;;;-1.43;100.00;100131.34;5030189;28;20036;-56
2024/01/29 06:16:58;;;;;;;10.65;6.13;;;;;;;-1.46;100.00;100123.56;5016949;28;20377;-56
2024/01/29 06:19:24;;;;;;;15.40;6.82;;;;;;;-1.36;100.00;100135.34;5029445;28;20029;-56
2024/01/29 06:21:50;;;;;;;11.52;6.65;;;;;;;-1.54;100.00;100113.44;5021804;28;20030;-56
2024/01/29 06:24:16;;;;;;;12.15;6.00;;;;;;;-1.50;100.00;100135.31;5032627;28;20021;-56
2024/01/29 06:26:42;;;;;;;10.18;5.55;;;;;;;-1.56;100.00;100117.97;5034501;28;20025;-56
2024/01/29 06:29:08;;;;;;;8.93;4.78;;;;;;;-1.53;100.00;100132.84;5030237;28;20025;-56
2024/01/29 06:31:34;;;;;;;14.80;6.47;;;;;;;-1.55;100.00;100131.16;5022029;28;20128;-56
2024/01/29 06:33:59;;;;;;;17.77;7.97;;;;;;;-1.71;100.00;100125.06;5025840;28;20465;-56
2024/01/29 06:36:24;;;;;;;20.63;9.18;;;;;;;-1.84;100.00;100132.03;5028914;28;20396;-56
2024/01/29 06:38:50;;;;;;;20.52;8.32;;;;;;;-1.81;100.00;100134.50;5041302;28;20056;-56
2024/01/29 06:41:33;;;;;;;18.70;8.77;;;;;;;-1.83;100.00;100134.63;5037104;28;20029;-57
2024/01/29 06:43:58;;;;;;;15.60;6.47;;;;;;;-1.70;100.00;100141.81;5038083;28;20030;-56
2024/01/29 06:46:24;;;;;;;13.52;6.68;;;;;;;-1.65;100.00;100145.94;5035096;28;20029;-56
2024/01/29 06:48:49;;;;;;;18.48;7.63;;;;;;;-1.63;100.00;100125.44;5031034;28;20029;-56
2024/01/29 06:51:16;;;;;;;13.20;7.65;;;;;;;-1.52;100.00;100142.50;5037720;28;20434;-56
2024/01/29 06:53:41;;;;;;;16.02;7.78;;;;;;;-1.45;100.00;100143.84;5030794;28;20030;-56
2024/01/29 06:56:07;;;;;;;16.67;7.15;;;;;;;-1.51;100.00;100126.50;5009183;28;20065;-56
2024/01/29 06:58:36;;;;;;;15.05;7.00;;;;;;;-1.38;100.00;100146.03;5041536;28;20144;-56
2024/01/29 07:01:02;;;;;;;12.00;6.03;;;;;;;-1.36;100.00;100148.59;5034831;28;20467;-56
2024/01/29 07:03:27;;;;;;;10.52;5.07;;;;;;;-1.34;100.00;100152.00;5040788;28;20477;-56
2024/01/29 07:05:59;;;;;;;14.00;6.05;;;;;;;-1.30;100.00;100155.34;5011351;28;20033;-57
2024/01/29 07:08:25;;;;;;;12.73;6.60;;;;;;;-1.29;100.00;100157.88;5019594;28;20037;-56
2024/01/29 07:10:51;;;;;;;10.63;6.18;;;;;;;-1.26;100.00;100151.53;5017427;28;20034;-56
2024/01/29 07:13:16;;;;;;;14.40;5.97;;;;;;;-1.11;100.00;100162.06;5040210;28;20037;-56
2024/01/29 07:15:42;;;;;;;13.90;6.65;;;;;;;-1.14;100.00;100166.72;5037894;28;20025;-56
2024/01/29 07:18:07;;;;;;;12.70;6.50;;;;;;;-1.15;100.00;100165.88;5023209;28;20049;-57
2024/01/29 07:20:38;;;;;;;12.75;6.50;;;;;;;-0.97;100.00;100173.59;5041588;28;20048;-57
2024/01/29 07:23:05;;;;;;;13.02;6.18;;;;;;;-0.88;100.00;100167.72;5026737;28;20034;-56
2024/01/29 07:25:31;;;;;;;12.30;6.57;;;;;;;-0.65;100.00;100168.09;5041161;28;20033;-56
2024/01/29 07:27:59;;;;;;;11.05;6.07;;;;;;;-0.53;100.00;100152.19;5038404;28;20036;-56
2024/01/29 07:30:25;;;;;;;13.35;6.50;;;;;;;-0.38;100.00;100162.78;5033850;28;20591;-56
2024/01/29 07:32:51;;;;;;;40.33;11.70;;;;;;;-0.30;100.00;100163.97;5033033;28;20140;-56
2024/01/29 07:35:16;;;;;;;22.20;7.90;;;;;;;-0.09;100.00;100158.19;5034722;28;20043;-56
2024/01/29 07:37:43;;;;;;;16.88;7.88;;;;;;;0.11;100.00;100155.06;5037634;28;20090;-57
2024/01/29 07:40:09;;;;;;;24.48;7.82;;;;;;;0.69;100.00;100157.34;5027364;28;20041;-57
2024/01/29 07:42:34;;;;;;;20.35;8.07;;;;;;;1.19;100.00;100164.41;5031421;28;20044;-57
2024/01/29 07:44:59;;;;;;;17.40;8.48;;;;;;;1.29;100.00;100157.47;5033997;28;20063;-57
2024/01/29 07:48:08;;;;;;;15.77;7.45;;;;;;;1.69;100.00;100159.03;5033216;28;20034;-57
2024/01/29 07:50:33;;;;;;;11.88;5.88;;;;;;;2.02;100.00;100155.69;5041129;28;20873;-57
2024/01/29 07:52:59;;;;;;;17.48;5.35;;;;;;;2.80;100.00;100156.81;5035806;28;20115;-57
2024/01/29 07:55:24;;;;;;;11.05;5.65;;;;;;;4.19;100.00;100155.31;5036505;28;20115;-58
2024/01/29 07:57:49;;;;;;;15.70;6.03;;;;;;;5.33;100.00;100157.06;5026896;28;20025;-57
2024/01/29 08:00:15;;;;;;;15.50;7.65;;;;;;;5.70;100.00;100151.09;5026806;28;20079;-57
2024/01/29 08:02:41;;;;;;;13.48;6.68;;;;;;;5.82;100.00;100139.25;5036039;28;20021;-57
2024/01/29 08:05:06;;;;;;;17.75;8.55;;;;;;;5.58;100.00;100147.69;5017754;28;20022;-57
2024/01/29 08:07:31;;;;;;;15.10;7.00;;;;;;;6.21;100.00;100150.03;5040994;28;20032;-57
2024/01/29 08:10:00;;;;;;;21.77;7.55;;;;;;;7.20;100.00;100139.72;5039048;28;20036;-58
2024/01/29 08:12:26;;;;;;;15.30;7.35;;;;;;;8.76;100.00;100150.19;5029503;28;20517;-57
2024/01/29 08:14:51;;;;;;;14.90;6.57;;;;;;;9.66;97.60;100149.75;5031750;28;20029;-56
2024/01/29 08:17:17;;;;;;;18.67;7.35;;;;;;;10.61;85.77;100155.66;5033590;28;20029;-56
2024/01/29 08:19:42;;;;;;;17.30;8.40;;;;;;;10.81;76.98;100145.31;5031557;28;20156;-56
2024/01/29 08:22:08;;;;;;;18.00;9.73;;;;;;;11.32;74.43;100155.84;5036455;28;20025;-56
2024/01/29 08:24:34;;;;;;;15.93;8.57;;;;;;;11.50;73.15;100156.44;5027005;28;20030;-57
2024/01/29 08:27:00;;;;;;;17.15;9.95;;;;;;;11.86;69.96;100161.38;5032771;28;20033;-56
2024/01/29 08:29:25;;;;;;;17.40;9.57;;;;;;;12.98;66.18;100161.66;5031295;28;20029;-56
2024/01/29 08:31:51;;;;;;;16.67;9.90;;;;;;;12.88;64.49;100155.66;5013735;28;20053;-57
2024/01/29 08:34:17;;;;;;;13.93;8.77;;;;;;;13.87;62.20;100160.78;5035213;28;20022;-56
2024/01/29 08:36:42;;;;;;;22.98;10.70;;;;;;;14.15;58.62;100167.19;5037721;28;20033;-57
2024/01/29 08:39:07;;;;;;;20.48;11.02;;;;;;;14.12;59.17;100162.13;5031891;28;20033;-60
2024/01/29 08:41:33;;;;;;;19.55;10.73;;;;;;;13.37;60.74;100166.84;5039332;28;20039;-57
2024/01/29 08:43:58;;;;;;;17.30;9.88;;;;;;;12.66;60.85;100171.81;5035906;28;20040;-57
2024/01/29 08:46:24;;;;;;;17.00;9.35;;;;;;;13.35;60.95;100168.91;5023529;28;20799;-57
2024/01/29 08:48:49;;;;;;;23.50;9.18;;;;;;;12.90;61.89;100175.31;5028993;28;20029;-57
2024/01/29 08:51:15;;;;;;;22.58;9.77;;;;;;;12.77;61.32;100175.13;5028051;28;20021;-57
2024/01/29 08:53:40;;;;;;;18.90;10.23;;;;;;;13.23;60.72;100178.56;5033711;28;20022;-57
2024/01/29 08:56:07;;;;;;;16.85;9.32;;;;;;;12.58;61.13;100180.03;5029162;28;20503;-57
2024/01/29 08:58:33;;;;;;;14.90;8.98;;;;;;;12.34;63.02;100189.22;5034439;28;20036;-56
2024/01/29 09:00:58;;;;;;;13.48;8.68;;;;;;;11.77;63.41;100179.53;5036579;28;20025;-57
2024/01/29 09:03:24;;;;;;;14.23;7.90;;;;;;;13.17;62.30;100182.00;5031043;28;20037;-57
2024/01/29 09:05:50;;;;;;;19.33;8.88;;;;;;;12.59;61.83;100186.31;5041993;28;20024;-56
2024/01/29 09:08:16;;;;;;;15.25;8.20;;;;;;;13.21;60.71;100177.91;5036873;28;20028;-56
2024/01/29 09:10:41;;;;;;;14.65;7.47;;;;;;;12.52;61.17;100188.88;5017510;28;20365;-56
2024/01/29 09:13:07;;;;;;;11.68;6.25;;;;;;;13.10;61.44;100175.66;5015603;28;20022;-56
2024/01/29 09:15:32;;;;;;;8.80;5.35;;;;;;;13.50;60.71;100184.41;5033849;28;20036;-56
2024/01/29 09:17:58;;;;;;;11.27;5.47;;;;;;;14.07;58.41;100189.09;5029312;28;20029;-56
2024/01/29 09:20:23;;;;;;;8.30;4.65;;;;;;;15.28;54.07;100187.25;5019700;28;20047;-56
2024/01/29 09:22:48;;;;;;;7.70;4.72;;;;;;;15.15;56.02;100187.16;5037938;28;20028;-56
2024/01/29 09:25:14;;;;;;;8.30;4.00;;;;;;;15.28;53.51;100191.84;5039320;28;20025;-56
2024/01/29 09:27:40;;;;;;;7.57;4.30;;;;;;;15.57;55.21;100185.31;5032452;28;20534;-56
2024/01/29 09:30:06;;;;;;;7.30;4.38;;;;;;;16.19;53.77;100194.38;5033997;28;20124;-56
2024/01/29 09:32:31;;;;;;;12.30;4.20;;;;;;;16.30;52.90;100191.06;5030144;28;20123;-56
2024/01/29 09:34:57;;;;;;;9.13;4.63;;;;;;;15.93;52.25;100190.53;5033502;28;20500;-56
2024/01/29 09:37:22;;;;;;;10.95;5.35;;;;;;;16.66;51.06;100192.56;5036006;28;20094;-56
2024/01/29 09:39:47;;;;;;;12.43;5.45;;;;;;;15.92;52.32;100205.22;5030287;28;20038;-56
2024/01/29 09:42:17;;;;;;;8.45;4.10;;;;;;;17.91;49.66;100200.84;5036435;28;20110;-57
2024/01/29 09:44:45;;;;;;;5.40;3.75;;;;;;;17.99;48.00;100197.84;5031124;28;20032;-56
2024/01/29 09:47:13;;;;;;;8.00;3.85;;;;;;;16.96;48.30;100189.47;5033072;28;20025;-56
2024/01/29 09:49:39;;;;;;;6.47;3.80;;;;;;;18.60;47.53;100200.03;5041952;28;20017;-56
2024/01/29 09:52:05;;;;;;;8.05;4.15;;;;;;;18.01;46.52;100206.69;5040091;28;20017;-56
2024/01/29 09:54:33;;;;;;;6.50;3.95;;;;;;;18.68;46.73;100203.56;5037685;28;20029;-56
2024/01/29 09:56:58;;;;;;;8.88;4.43;;;;;;;20.27;43.42;100207.41;5030363;28;20021;-56
2024/01/29 09:59:24;;;;;;;8.30;3.97;;;;;;;18.86;45.11;100203.66;5032488;28;20385;-56
2024/01/29 10:01:49;;;;;;;11.15;5.00;;;;;;;17.64;46.80;100209.13;5032962;28;20025;-56
2024/01/29 10:04:15;;;;;;;10.65;4.70;;;;;;;17.79;47.65;100208.00;5031355;28;20025;-57
2024/01/29 10:06:41;;;;;;;12.93;5.10;;;;;;;18.17;46.89;100205.34;5034149;28;20036;-56
2024/01/29 10:09:08;;;;;;;9.93;4.72;;;;;;;19.33;45.06;100197.75;5041972;28;20025;-56
2024/01/29 10:11:35;;;;;;;8.32;4.50;;;;;;;20.87;43.69;100202.97;5033102;28;20040;-56
2024/01/29 10:14:01;;;;;;;11.23;3.95;;;;;;;18.66;44.67;100208.44;5033003;28;20029;-56
2024/01/29 10:16:30;;;;;;;8.52;4.25;;;;;;;18.57;46.34;100200.47;5039736;28;20025;-58
2024/01/29 10:19:01;;;;;;;9.40;3.97;;;;;;;18.90;43.98;100188.44;5047501;28;20028;-56
2024/01/29 10:21:27;;;;;;;5.63;3.97;;;;;;;19.37;44.63;100197.09;5039073;28;20028;-56
2024/01/29 10:23:58;;;;;;;8.13;4.18;;;;;;;20.22;43.80;100200.94;5041112;28;20013;-57
2024/01/29 10:26:25;;;;;;;5.93;3.85;;;;;;;22.17;42.79;100196.28;5037762;28;20033;-57
2024/01/29 10:29:04;;;;;;;8.35;4.13;;;;;;;21.55;41.25;100185.91;5034987;28;20473;-58
2024/01/29 10:31:31;;;;;;;10.23;4.40;;;;;;;21.63;41.70;100180.00;5031863;28;20030;-57
2024/01/29 10:34:00;;;;;;;6.63;3.72;;;;;;;21.35;41.47;100185.41;5040259;28;20021;-57
2024/01/29 10:36:26;;;;;;;7.18;3.67;;;;;;;21.10;42.28;100186.50;5027962;28;20034;-58
2024/01/29 10:38:52;;;;;;;10.00;4.45;;;;;;;20.27;42.58;100188.19;5036124;28;20028;-57
2024/01/29 10:41:21;;;;;;;6.20;3.78;;;;;;;18.55;44.50;100197.13;5036919;28;20399;-56
2024/01/29 10:43:47;;;;;;;;;;;;;;;20.44;44.16;100196.63;5041092;28;20041;-57
2024/01/29 10:46:19;;;;;;;10.57;4.68;;;;;;;21.01;42.42;100190.66;5036187;28;19908;-57
2024/01/29 10:48:45;;;;;;;6.65;4.15;;;;;;;20.69;43.20;100177.22;5043015;28;20033;-57
2024/01/29 10:51:13;;;;;;;10.73;3.88;;;;;;;22.17;42.42;100176.97;5036418;28;20071;-56
2024/01/29 10:53:40;;;;;;;8.50;4.25;;;;;;;21.00;43.45;100176.06;5033833;28;20025;-56
2024/01/29 10:56:36;;;;;;;8.13;4.25;;;;;;;21.76;42.76;100175.31;5036441;28;20025;-56
2024/01/29 10:59:03;;;;;;;7.95;4.55;;;;;;;20.95;44.09;100169.59;5044739;28;20025;-56
2024/01/29 11:01:31;;;;;;;8.90;4.00;;;;;;;22.08;42.48;100173.75;5037537;28;20025;-56
2024/01/29 11:03:59;;;;;;;12.93;4.47;;;;;;;22.33;42.42;100174.56;5036482;28;20060;-55
2024/01/29 11:06:25;;;;;;;8.48;4.13;;;;;;;20.01;44.90;100181.13;5019030;28;20021;-55
2024/01/29 11:08:57;;;;;;;13.90;4.45;;;;;;;20.97;44.28;100160.03;5050216;28;20107;-56
2024/01/29 11:11:27;;;;;;;7.30;3.83;;;;;;;21.82;43.41;100152.28;5042417;28;20017;-55
2024/01/29 11:13:53;;;;;;;8.95;4.68;;;;;;;22.27;43.18;100155.16;5019678;28;20041;-55
2024/01/29 11:16:22;;;;;;;8.15;4.43;;;;;;;23.39;41.73;100138.75;5042231;28;20059;-55
2024/01/29 11:18:48;;;;;;;9.35;4.25;;;;;;;22.61;41.35;100159.88;5047498;28;20044;-55